Time;durP1;ratioP1;P1;durP2;ratioP2;P2;SDS_P1;SDS_P2;PMS_P1;PMS_P2;Temp;Humidity;BMP_temperature;BMP_pressure;BME280_temperature;BME280_humidity;BME280_pressure;Samples;Min_cycle;Max_cycle;Signal;HPM_P1;HPM_P2
2023/03/09 00:02:16;;;;;;;0.50;0.50;;;12.60;99.90;;;;;;5048517;28;20510;-62
2023/03/09 00:04:43;;;;;;;0.50;0.50;;;12.60;99.90;;;;;;5049713;28;20659;-62
2023/03/09 00:07:10;;;;;;;0.50;0.50;;;12.50;99.90;;;;;;5050170;28;20214;-63
2023/03/09 00:09:37;;;;;;;0.40;0.40;;;12.50;99.90;;;;;;5047537;28;20204;-61
2023/03/09 00:12:04;;;;;;;0.40;0.40;;;12.50;99.90;;;;;;5049599;28;20226;-61
2023/03/09 00:14:32;;;;;;;0.50;0.50;;;12.50;99.90;;;;;;5049001;28;20725;-63
2023/03/09 00:16:59;;;;;;;0.97;0.67;;;12.50;99.90;;;;;;5050586;28;20970;-61
2023/03/09 00:19:27;;;;;;;0.33;0.33;;;12.50;99.90;;;;;;5050165;28;20215;-62
2023/03/09 00:21:55;;;;;;;0.40;0.40;;;12.40;99.90;;;;;;5049869;28;20258;-61
2023/03/09 00:24:27;;;;;;;0.70;0.70;;;12.30;99.90;;;;;;5048830;28;20228;-62
2023/03/09 00:26:55;;;;;;;0.20;0.20;;;12.30;99.90;;;;;;5049606;28;20196;-61
2023/03/09 00:29:25;;;;;;;0.40;0.40;;;12.20;99.90;;;;;;5050114;28;20269;-61
2023/03/09 00:31:53;;;;;;;0.30;0.30;;;12.10;99.90;;;;;;5049433;28;20528;-61
2023/03/09 00:34:21;;;;;;;0.60;0.50;;;12.00;99.90;;;;;;5049239;28;20223;-62
2023/03/09 00:36:48;;;;;;;0.23;0.23;;;12.00;99.90;;;;;;5052771;28;20207;-62
2023/03/09 00:39:17;;;;;;;0.20;0.20;;;11.90;99.90;;;;;;5052096;28;20204;-61
2023/03/09 00:41:44;;;;;;;0.27;0.27;;;11.90;99.90;;;;;;5050806;28;20206;-61
2023/03/09 00:44:12;;;;;;;0.17;0.17;;;11.90;99.90;;;;;;5050400;28;20219;-62
2023/03/09 00:46:38;;;;;;;0.20;0.20;;;11.90;99.90;;;;;;5051285;28;20204;-62
2023/03/09 00:49:06;;;;;;;0.73;0.43;;;11.90;99.90;;;;;;5050645;28;20667;-62
2023/03/09 00:51:34;;;;;;;0.30;0.30;;;11.80;99.90;;;;;;5050374;28;20200;-62
2023/03/09 00:54:01;;;;;;;0.20;0.20;;;11.90;99.90;;;;;;5051615;28;20219;-61
2023/03/09 00:56:31;;;;;;;0.33;0.33;;;11.90;99.90;;;;;;5055660;28;20210;-62
2023/03/09 00:58:59;;;;;;;0.30;0.30;;;11.90;99.90;;;;;;5053118;28;20199;-62
2023/03/09 01:01:26;;;;;;;0.20;0.20;;;11.90;99.90;;;;;;5051907;28;20296;-61
2023/03/09 01:03:53;;;;;;;0.20;0.20;;;11.80;99.90;;;;;;5051547;28;20223;-60
2023/03/09 01:06:22;;;;;;;0.30;0.30;;;11.80;99.90;;;;;;5052132;28;20694;-61
2023/03/09 01:08:49;;;;;;;0.20;0.20;;;11.80;99.90;;;;;;5053768;28;20214;-61
2023/03/09 01:11:17;;;;;;;0.70;0.30;;;11.90;99.90;;;;;;5051798;28;20243;-61
2023/03/09 01:13:44;;;;;;;0.30;0.30;;;11.80;99.90;;;;;;5050517;28;20238;-61
2023/03/09 01:16:11;;;;;;;0.30;0.30;;;11.80;99.90;;;;;;5050000;28;20655;-62
2023/03/09 01:18:38;;;;;;;0.32;0.32;;;11.70;99.90;;;;;;5051729;28;20302;-62
2023/03/09 01:21:05;;;;;;;0.30;0.30;;;11.60;99.90;;;;;;5065497;28;20306;-62
2023/03/09 01:23:34;;;;;;;0.20;0.20;;;11.60;99.90;;;;;;5060152;28;20647;-62
2023/03/09 01:26:01;;;;;;;0.40;0.30;;;11.50;99.90;;;;;;5050490;28;20252;-62
2023/03/09 01:28:27;;;;;;;0.23;0.23;;;11.60;99.90;;;;;;5050513;28;20207;-61
2023/03/09 01:30:54;;;;;;;0.47;0.40;;;11.50;99.90;;;;;;5050899;28;20211;-61
2023/03/09 01:33:21;;;;;;;0.30;0.30;;;11.40;99.90;;;;;;5049848;28;20281;-61
2023/03/09 01:35:48;;;;;;;0.10;0.10;;;11.40;99.90;;;;;;5051257;28;20345;-61
2023/03/09 01:38:15;;;;;;;0.30;0.30;;;11.40;99.90;;;;;;5049767;28;20208;-61
2023/03/09 01:40:47;;;;;;;0.20;0.20;;;11.30;99.90;;;;;;5049899;28;20215;-61
2023/03/09 01:43:31;;;;;;;0.30;0.30;;;11.30;99.90;;;;;;5050006;28;20227;-62
2023/03/09 01:46:37;;;;;;;0.20;0.20;;;11.30;99.90;;;;;;5049222;28;20828;-61
2023/03/09 01:49:11;;;;;;;0.25;0.25;;;11.30;99.90;;;;;;5050288;28;20203;-62
2023/03/09 01:51:42;;;;;;;0.10;0.10;;;11.30;99.90;;;;;;5050354;28;20221;-62
2023/03/09 01:54:14;;;;;;;0.22;0.22;;;11.20;99.90;;;;;;5049847;28;20232;-61
2023/03/09 01:56:45;;;;;;;0.32;0.32;;;11.20;99.90;;;;;;5056991;28;20191;-62
2023/03/09 01:59:13;;;;;;;0.30;0.30;;;11.20;99.90;;;;;;5067307;28;20303;-62
2023/03/09 02:01:42;;;;;;;0.38;0.38;;;11.30;99.90;;;;;;5065505;28;20218;-62
2023/03/09 02:04:15;;;;;;;0.30;0.30;;;11.30;99.90;;;;;;5062784;28;20338;-61
2023/03/09 02:06:42;;;;;;;0.33;0.30;;;11.30;99.90;;;;;;5062178;28;20206;-61
2023/03/09 02:09:20;;;;;;;0.50;0.50;;;11.40;99.90;;;;;;5057142;28;20210;-61
2023/03/09 02:11:48;;;;;;;0.40;0.40;;;11.50;99.90;;;;;;5049940;28;20307;-60
2023/03/09 02:14:15;;;;;;;0.20;0.20;;;11.60;99.90;;;;;;5051280;28;20236;-61
2023/03/09 02:16:42;;;;;;;0.20;0.20;;;11.60;99.90;;;;;;5054129;28;20208;-61
2023/03/09 02:19:20;;;;;;;0.50;0.50;;;11.70;99.90;;;;;;5053687;28;20651;-62
2023/03/09 02:21:52;;;;;;;0.53;0.53;;;11.70;99.90;;;;;;5053756;28;20204;-62
2023/03/09 02:24:26;;;;;;;0.40;0.40;;;11.80;99.90;;;;;;5045898;28;20228;-62
2023/03/09 02:26:57;;;;;;;0.45;0.45;;;11.80;99.90;;;;;;5053247;28;20641;-62
2023/03/09 02:29:26;;;;;;;0.63;0.63;;;11.80;99.90;;;;;;5055067;28;20195;-61
2023/03/09 02:31:53;;;;;;;0.40;0.40;;;11.90;99.90;;;;;;5054385;28;20786;-63
2023/03/09 02:34:19;;;;;;;0.30;0.30;;;11.90;99.90;;;;;;5052932;28;20593;-62
2023/03/09 02:36:46;;;;;;;0.40;0.40;;;11.90;99.90;;;;;;5053716;28;20208;-62
2023/03/09 02:39:21;;;;;;;0.50;0.50;;;11.90;99.90;;;;;;5052741;28;20243;-61
2023/03/09 02:41:49;;;;;;;0.57;0.57;;;12.00;99.90;;;;;;5052771;28;20187;-61
2023/03/09 02:44:16;;;;;;;0.43;0.43;;;12.00;99.90;;;;;;5052165;28;20624;-62
2023/03/09 02:46:45;;;;;;;0.40;0.40;;;12.00;99.90;;;;;;5053282;28;20223;-61
2023/03/09 02:49:11;;;;;;;0.40;0.40;;;12.00;99.90;;;;;;5052928;28;20204;-61
2023/03/09 02:51:38;;;;;;;0.57;0.57;;;12.00;99.90;;;;;;5052447;28;20222;-62
2023/03/09 02:54:05;;;;;;;0.50;0.50;;;12.00;99.90;;;;;;5052918;28;20726;-62
2023/03/09 02:56:32;;;;;;;0.60;0.60;;;12.00;99.90;;;;;;5054641;28;20852;-63
2023/03/09 02:59:01;;;;;;;0.50;0.50;;;11.90;99.90;;;;;;5053140;28;20208;-61
2023/03/09 03:01:28;;;;;;;0.40;0.40;;;11.90;99.90;;;;;;5052529;28;20214;-61
2023/03/09 03:03:56;;;;;;;0.52;0.52;;;11.80;99.90;;;;;;5051688;28;20246;-62
2023/03/09 03:06:23;;;;;;;0.30;0.30;;;11.70;99.90;;;;;;5052960;28;20220;-62
2023/03/09 03:08:50;;;;;;;0.50;0.50;;;11.50;99.90;;;;;;5052917;28;20295;-62
2023/03/09 03:11:16;;;;;;;0.50;0.50;;;11.40;99.90;;;;;;5052434;28;20222;-61
2023/03/09 03:13:43;;;;;;;0.40;0.40;;;11.30;99.90;;;;;;5052454;28;20741;-61
2023/03/09 03:16:10;;;;;;;0.25;0.25;;;11.30;99.90;;;;;;5051844;28;20239;-61
2023/03/09 03:18:37;;;;;;;0.40;0.40;;;11.20;99.90;;;;;;5052314;28;20552;-61
2023/03/09 03:21:05;;;;;;;0.50;0.50;;;11.20;99.90;;;;;;5052475;28;20212;-61
2023/03/09 03:23:32;;;;;;;0.50;0.50;;;11.20;99.90;;;;;;5052650;28;20228;-62
2023/03/09 03:26:05;;;;;;;0.37;0.37;;;11.20;99.90;;;;;;5051431;28;20204;-62
2023/03/09 03:28:32;;;;;;;0.30;0.30;;;11.20;99.90;;;;;;5052366;28;20566;-61
2023/03/09 03:30:59;;;;;;;0.40;0.40;;;11.30;99.90;;;;;;5051902;28;20210;-62
2023/03/09 03:33:26;;;;;;;0.23;0.23;;;11.30;99.90;;;;;;5051733;28;20345;-62
2023/03/09 03:35:53;;;;;;;0.22;0.22;;;11.30;99.90;;;;;;5051536;28;20223;-62
2023/03/09 03:38:21;;;;;;;0.40;0.40;;;11.40;99.90;;;;;;5052024;28;20204;-61
2023/03/09 03:40:48;;;;;;;0.50;0.50;;;11.40;99.90;;;;;;5051929;28;20204;-61
2023/03/09 03:43:15;;;;;;;0.60;0.60;;;11.40;99.90;;;;;;5051761;28;20227;-61
2023/03/09 03:45:42;;;;;;;0.40;0.40;;;11.40;99.90;;;;;;5051043;28;20230;-61
2023/03/09 03:48:09;;;;;;;0.40;0.40;;;11.50;99.90;;;;;;5051860;28;20298;-61
2023/03/09 03:50:36;;;;;;;0.40;0.40;;;11.60;99.90;;;;;;5051843;28;20207;-62
2023/03/09 03:53:03;;;;;;;0.77;0.77;;;11.60;99.90;;;;;;5051789;28;20216;-61
2023/03/09 03:55:31;;;;;;;0.80;0.80;;;11.60;99.90;;;;;;5051194;28;20246;-61
2023/03/09 03:57:58;;;;;;;0.60;0.60;;;11.60;99.90;;;;;;5053110;28;20204;-62
2023/03/09 04:00:25;;;;;;;0.60;0.60;;;11.60;99.90;;;;;;5052351;28;20208;-61
2023/03/09 04:02:52;;;;;;;0.70;0.70;;;11.70;99.90;;;;;;5051352;28;20208;-61
2023/03/09 04:05:19;;;;;;;0.57;0.57;;;11.70;99.90;;;;;;5051059;28;20210;-62
2023/03/09 04:07:47;;;;;;;0.83;0.83;;;11.70;99.90;;;;;;5051635;28;20218;-62
2023/03/09 04:10:13;;;;;;;0.80;0.80;;;11.70;99.90;;;;;;5051282;28;20204;-60
2023/03/09 04:12:42;;;;;;;0.70;0.70;;;11.70;99.90;;;;;;5051354;28;20698;-61
2023/03/09 04:15:09;;;;;;;1.13;1.03;;;11.70;99.90;;;;;;5051177;28;20228;-60
2023/03/09 04:17:36;;;;;;;1.03;1.00;;;11.80;99.90;;;;;;5051722;28;20647;-61
2023/03/09 04:20:04;;;;;;;1.27;1.17;;;11.80;99.90;;;;;;5052220;28;20242;-62
2023/03/09 04:22:31;;;;;;;1.08;1.00;;;11.80;99.90;;;;;;5050546;28;20204;-62
2023/03/09 04:24:58;;;;;;;0.83;0.83;;;11.80;99.90;;;;;;5049244;28;20220;-62
2023/03/09 04:27:25;;;;;;;0.88;0.88;;;11.80;99.90;;;;;;5050271;28;20212;-62
2023/03/09 04:29:53;;;;;;;0.83;0.80;;;11.90;99.90;;;;;;5050001;28;20204;-62
2023/03/09 04:32:20;;;;;;;1.37;1.10;;;11.80;99.90;;;;;;5050056;28;20210;-61
2023/03/09 04:34:47;;;;;;;0.70;0.70;;;11.90;99.90;;;;;;5049245;28;20238;-61
2023/03/09 04:37:14;;;;;;;0.93;0.93;;;11.80;99.90;;;;;;5049602;28;20208;-62
2023/03/09 04:39:40;;;;;;;1.20;1.10;;;11.90;99.90;;;;;;5050049;28;20212;-62
2023/03/09 04:42:08;;;;;;;0.87;0.87;;;11.90;99.90;;;;;;5050281;28;20283;-61
2023/03/09 04:44:35;;;;;;;1.33;1.25;;;11.90;99.90;;;;;;5052900;28;20259;-61
2023/03/09 04:47:03;;;;;;;1.20;1.10;;;11.90;99.90;;;;;;5049312;28;20188;-61
2023/03/09 04:49:30;;;;;;;0.70;0.70;;;11.90;99.90;;;;;;5049362;28;20666;-62
2023/03/09 04:51:57;;;;;;;0.90;0.90;;;11.90;99.90;;;;;;5050549;28;20633;-62
2023/03/09 04:54:24;;;;;;;0.93;0.93;;;11.90;99.90;;;;;;5053962;28;20246;-62
2023/03/09 04:56:51;;;;;;;0.90;0.90;;;11.80;99.90;;;;;;5053769;28;20216;-62
2023/03/09 04:59:17;;;;;;;1.00;0.93;;;11.70;99.90;;;;;;5051046;28;20486;-61
2023/03/09 05:01:44;;;;;;;0.90;0.90;;;11.60;99.90;;;;;;5050618;28;20250;-61
2023/03/09 05:04:13;;;;;;;1.00;1.00;;;11.60;99.90;;;;;;5049967;28;20231;-61
2023/03/09 05:06:40;;;;;;;1.00;1.00;;;11.60;99.90;;;;;;5051141;28;20204;-61
2023/03/09 05:09:06;;;;;;;1.10;1.07;;;11.50;99.90;;;;;;5050802;28;20226;-62
2023/03/09 05:11:33;;;;;;;1.15;1.08;;;11.50;99.90;;;;;;5051504;28;20225;-61
2023/03/09 05:14:00;;;;;;;1.40;1.30;;;11.50;99.90;;;;;;5053482;28;20640;-61
2023/03/09 05:16:27;;;;;;;1.05;1.05;;;11.40;99.90;;;;;;5047284;28;20238;-63
2023/03/09 05:18:54;;;;;;;1.35;1.25;;;11.30;99.90;;;;;;5047654;28;20204;-61
2023/03/09 05:21:23;;;;;;;1.17;1.13;;;11.40;99.90;;;;;;5033817;28;20232;-62
2023/03/09 05:23:49;;;;;;;1.30;1.20;;;11.40;99.90;;;;;;5034187;28;20231;-60
2023/03/09 05:26:16;;;;;;;1.40;1.30;;;11.40;99.90;;;;;;5029788;28;20204;-62
2023/03/09 05:28:43;;;;;;;0.83;0.83;;;11.40;99.90;;;;;;5030081;28;20683;-61
2023/03/09 05:31:11;;;;;;;1.00;1.00;;;11.40;99.90;;;;;;5029238;28;20717;-60
2023/03/09 05:33:38;;;;;;;1.73;1.00;;;11.50;99.90;;;;;;5028491;28;20221;-60
2023/03/09 05:36:15;;;;;;;1.00;0.97;;;11.60;99.90;;;;;;5028148;28;20577;-63
2023/03/09 05:38:43;;;;;;;1.87;0.90;;;11.60;99.90;;;;;;5029750;28;20662;-62
2023/03/09 05:41:10;;;;;;;1.23;1.13;;;11.60;99.90;;;;;;5029414;28;20204;-60
2023/03/09 05:43:41;;;;;;;1.13;1.00;;;11.60;99.90;;;;;;5028925;28;20216;-64
2023/03/09 05:46:08;;;;;;;1.27;1.17;;;11.70;99.90;;;;;;5030389;28;20193;-62
2023/03/09 05:48:35;;;;;;;1.00;1.00;;;11.70;99.90;;;;;;5028700;28;20590;-61
2023/03/09 05:51:02;;;;;;;1.27;1.17;;;11.70;99.90;;;;;;5029964;28;20226;-62
2023/03/09 05:53:29;;;;;;;1.20;1.10;;;11.70;99.90;;;;;;5029741;28;20345;-61
2023/03/09 05:55:58;;;;;;;1.02;0.93;;;11.80;99.90;;;;;;5027123;28;20216;-61
2023/03/09 05:58:25;;;;;;;1.30;1.20;;;11.80;99.90;;;;;;5029029;28;20200;-61
2023/03/09 06:00:53;;;;;;;1.00;1.00;;;11.90;99.90;;;;;;5029081;28;20580;-61
2023/03/09 06:03:19;;;;;;;0.97;0.97;;;11.90;99.90;;;;;;5028853;28;20696;-61
2023/03/09 06:05:47;;;;;;;1.20;1.10;;;11.90;99.90;;;;;;5029042;28;20195;-61
2023/03/09 06:08:14;;;;;;;1.23;1.13;;;11.90;99.90;;;;;;5042415;28;20216;-61
2023/03/09 06:10:41;;;;;;;1.30;1.20;;;11.90;99.90;;;;;;5033249;28;20219;-62
2023/03/09 06:13:09;;;;;;;1.17;1.07;;;11.90;99.90;;;;;;5049345;28;20200;-62
2023/03/09 06:15:38;;;;;;;1.80;1.70;;;12.00;99.90;;;;;;5049446;28;20655;-61
2023/03/09 06:18:05;;;;;;;1.23;1.20;;;12.00;99.90;;;;;;5050427;28;20212;-62
2023/03/09 06:20:32;;;;;;;1.40;1.30;;;12.00;99.90;;;;;;5050471;28;20215;-61
2023/03/09 06:22:59;;;;;;;1.53;1.43;;;11.90;99.90;;;;;;5050529;28;20669;-62
2023/03/09 06:25:26;;;;;;;1.83;1.73;;;12.00;99.90;;;;;;5050008;28;20196;-62
2023/03/09 06:27:53;;;;;;;1.37;1.27;;;12.00;99.90;;;;;;5050258;28;20204;-62
2023/03/09 06:30:21;;;;;;;1.30;1.20;;;12.10;99.90;;;;;;5050306;28;20218;-62
2023/03/09 06:32:48;;;;;;;0.90;0.90;;;12.00;99.90;;;;;;5050230;28;20234;-62
2023/03/09 06:35:15;;;;;;;1.30;1.20;;;12.00;99.90;;;;;;5049907;28;20204;-60
2023/03/09 06:37:43;;;;;;;1.03;1.03;;;12.00;99.90;;;;;;5051290;28;20204;-61
2023/03/09 06:40:12;;;;;;;1.00;1.00;;;12.00;99.90;;;;;;5053665;28;20219;-61
2023/03/09 06:42:39;;;;;;;1.17;1.00;;;12.10;99.90;;;;;;5050421;28;20701;-61
2023/03/09 06:45:08;;;;;;;1.10;1.10;;;12.20;99.90;;;;;;5049494;28;20793;-60
2023/03/09 06:47:36;;;;;;;1.27;1.20;;;12.20;99.90;;;;;;5038160;28;20223;-61
2023/03/09 06:50:03;;;;;;;1.07;1.07;;;12.10;99.90;;;;;;5031884;28;20209;-62
2023/03/09 06:52:29;;;;;;;1.00;1.00;;;12.00;99.90;;;;;;5030659;28;20216;-60
2023/03/09 06:54:56;;;;;;;1.30;1.20;;;11.90;99.90;;;;;;5048023;28;20292;-60
2023/03/09 06:57:23;;;;;;;1.43;1.23;;;11.90;99.90;;;;;;5051751;28;20224;-60
2023/03/09 06:59:50;;;;;;;1.10;1.10;;;11.80;99.90;;;;;;5052184;28;20207;-62
2023/03/09 07:02:17;;;;;;;0.90;0.90;;;11.90;99.90;;;;;;5053218;28;20196;-61
2023/03/09 07:04:45;;;;;;;1.20;1.10;;;11.80;99.90;;;;;;5051533;28;20710;-62
2023/03/09 07:07:15;;;;;;;1.47;1.37;;;11.80;99.90;;;;;;5052472;28;20219;-60
2023/03/09 07:09:41;;;;;;;0.95;0.95;;;11.80;99.90;;;;;;5053167;28;20204;-60
2023/03/09 07:12:09;;;;;;;0.90;0.87;;;11.90;99.90;;;;;;5052992;28;20215;-63
2023/03/09 07:14:36;;;;;;;1.03;1.03;;;11.90;99.90;;;;;;5052605;28;20722;-62
2023/03/09 07:17:03;;;;;;;0.90;0.90;;;11.90;99.90;;;;;;5052997;28;20224;-59
2023/03/09 07:19:31;;;;;;;1.00;1.00;;;11.80;99.90;;;;;;5053435;28;20266;-60
2023/03/09 07:21:59;;;;;;;1.20;1.10;;;11.90;99.90;;;;;;5053264;28;20204;-60
2023/03/09 07:24:26;;;;;;;0.93;0.80;;;11.80;99.90;;;;;;5052441;28;20338;-61
2023/03/09 07:26:53;;;;;;;0.60;0.60;;;11.80;99.90;;;;;;5053803;28;20334;-60
2023/03/09 07:29:20;;;;;;;0.87;0.87;;;11.80;99.90;;;;;;5058459;28;20236;-59
2023/03/09 07:31:47;;;;;;;1.17;1.07;;;11.80;99.90;;;;;;5056494;28;20261;-61
2023/03/09 07:34:14;;;;;;;1.10;1.10;;;11.90;99.90;;;;;;5052890;28;20311;-63
2023/03/09 07:36:41;;;;;;;1.17;1.07;;;11.90;99.90;;;;;;5052960;28;20226;-61
2023/03/09 07:39:09;;;;;;;1.08;1.08;;;11.90;99.90;;;;;;5053043;28;20609;-61
2023/03/09 07:41:36;;;;;;;1.20;1.10;;;11.90;99.90;;;;;;5052708;28;20722;-60
2023/03/09 07:44:03;;;;;;;0.93;0.93;;;11.90;99.90;;;;;;5052125;28;20227;-60
2023/03/09 07:46:29;;;;;;;0.90;0.90;;;12.00;99.90;;;;;;5052930;28;20206;-61
2023/03/09 07:48:56;;;;;;;1.07;0.90;;;12.00;99.90;;;;;;5053082;28;20212;-60
2023/03/09 07:51:23;;;;;;;0.90;0.90;;;12.00;99.90;;;;;;5052986;28;20216;-60
2023/03/09 07:53:50;;;;;;;1.23;1.03;;;12.00;99.90;;;;;;5052412;28;20706;-60
2023/03/09 07:56:18;;;;;;;1.00;1.00;;;12.10;99.90;;;;;;5053281;28;20246;-60
2023/03/09 07:58:46;;;;;;;1.27;1.10;;;12.10;99.90;;;;;;5053682;28;20595;-59
2023/03/09 08:01:16;;;;;;;1.20;1.10;;;12.10;99.90;;;;;;5054932;28;20204;-60
2023/03/09 08:03:43;;;;;;;1.15;1.05;;;12.10;99.90;;;;;;5053864;28;20682;-62
2023/03/09 08:06:10;;;;;;;1.10;1.10;;;12.10;99.90;;;;;;5053477;28;20200;-61
2023/03/09 08:08:37;;;;;;;0.80;0.80;;;12.10;99.90;;;;;;5052222;28;20210;-61
2023/03/09 08:11:04;;;;;;;0.87;0.87;;;12.10;99.90;;;;;;5048602;28;20295;-62
2023/03/09 08:13:33;;;;;;;0.90;0.90;;;12.10;99.90;;;;;;5052422;28;20310;-60
2023/03/09 08:16:02;;;;;;;1.00;1.00;;;12.10;99.90;;;;;;5051848;28;20226;-60
2023/03/09 08:18:29;;;;;;;0.90;0.90;;;12.10;99.90;;;;;;5052353;28;20257;-61
2023/03/09 08:21:03;;;;;;;0.80;0.80;;;12.10;99.90;;;;;;5052411;28;20290;-59
2023/03/09 08:23:29;;;;;;;1.13;1.05;;;12.10;99.90;;;;;;5052063;28;20852;-59
2023/03/09 08:25:56;;;;;;;0.87;0.87;;;12.10;99.90;;;;;;5051994;28;20291;-61
2023/03/09 08:28:23;;;;;;;0.70;0.70;;;12.10;99.90;;;;;;5052128;28;20212;-59
2023/03/09 08:30:51;;;;;;;0.67;0.67;;;12.10;99.90;;;;;;5052025;28;20203;-60
2023/03/09 08:33:18;;;;;;;0.90;0.90;;;12.20;99.90;;;;;;5051687;28;20244;-60
2023/03/09 08:35:45;;;;;;;0.97;0.97;;;12.30;99.90;;;;;;5051473;28;20208;-60
2023/03/09 08:38:11;;;;;;;0.97;0.90;;;12.30;99.90;;;;;;5051912;28;20200;-62
2023/03/09 08:40:38;;;;;;;0.70;0.70;;;12.20;99.90;;;;;;5051915;28;20204;-60
2023/03/09 08:43:05;;;;;;;0.70;0.70;;;12.20;99.90;;;;;;5051188;28;20577;-61
2023/03/09 08:45:33;;;;;;;0.50;0.50;;;12.20;99.90;;;;;;5050829;28;20235;-61
2023/03/09 08:48:01;;;;;;;0.80;0.80;;;12.20;99.90;;;;;;5051683;28;20596;-60
2023/03/09 08:50:28;;;;;;;0.77;0.77;;;12.30;99.90;;;;;;5051278;28;20219;-61
2023/03/09 08:52:56;;;;;;;0.90;0.90;;;12.30;99.90;;;;;;5051396;28;20215;-60
2023/03/09 08:55:23;;;;;;;0.80;0.80;;;12.20;99.90;;;;;;5050709;28;20224;-60
2023/03/09 08:57:51;;;;;;;0.80;0.80;;;12.20;99.90;;;;;;5051389;28;20238;-62
2023/03/09 09:00:19;;;;;;;0.70;0.70;;;12.20;99.90;;;;;;5051100;28;20243;-61
2023/03/09 09:02:45;;;;;;;0.80;0.80;;;12.20;99.90;;;;;;5051880;28;20574;-60
2023/03/09 09:05:13;;;;;;;0.80;0.80;;;12.20;99.90;;;;;;5051028;28;20231;-61
2023/03/09 09:07:40;;;;;;;1.00;1.00;;;12.20;99.90;;;;;;5055732;28;20364;-60
2023/03/09 09:10:08;;;;;;;0.77;0.77;;;12.20;99.90;;;;;;5059673;28;20299;-60
2023/03/09 09:12:37;;;;;;;0.90;0.90;;;12.10;99.90;;;;;;5052840;28;20582;-60
2023/03/09 09:15:05;;;;;;;1.13;1.07;;;12.20;99.90;;;;;;5050913;28;20227;-61
2023/03/09 09:17:32;;;;;;;1.10;1.10;;;12.20;99.90;;;;;;5051266;28;20219;-61
2023/03/09 09:19:59;;;;;;;0.80;0.80;;;12.20;99.90;;;;;;5050096;28;20298;-61
2023/03/09 09:22:27;;;;;;;0.70;0.70;;;12.10;99.90;;;;;;5051270;28;20208;-61
2023/03/09 09:24:54;;;;;;;0.90;0.90;;;12.10;99.90;;;;;;5050573;28;20724;-60
2023/03/09 09:27:21;;;;;;;0.90;0.90;;;12.20;99.90;;;;;;5051692;28;20200;-60
2023/03/09 09:29:48;;;;;;;1.00;0.90;;;12.20;99.90;;;;;;5051263;28;20291;-60
2023/03/09 09:32:15;;;;;;;0.60;0.60;;;12.20;99.90;;;;;;5050707;28;20226;-61
2023/03/09 09:34:42;;;;;;;0.90;0.90;;;12.30;99.90;;;;;;5050236;28;20227;-62
2023/03/09 09:37:10;;;;;;;0.93;0.93;;;12.20;99.90;;;;;;5050729;28;20234;-60
2023/03/09 09:39:39;;;;;;;0.80;0.80;;;12.10;99.90;;;;;;5050908;28;20212;-62
2023/03/09 09:42:13;;;;;;;0.90;0.90;;;12.30;99.90;;;;;;5051135;28;20211;-61
2023/03/09 09:44:44;;;;;;;0.80;0.80;;;12.30;99.90;;;;;;5056473;28;20224;-61
2023/03/09 09:47:15;;;;;;;1.10;1.10;;;12.30;99.90;;;;;;5053171;28;20682;-60
2023/03/09 09:49:47;;;;;;;0.77;0.77;;;12.30;99.90;;;;;;5050998;28;20307;-61
2023/03/09 09:52:24;;;;;;;1.70;1.20;;;12.40;99.90;;;;;;5050383;28;20214;-60
2023/03/09 09:54:57;;;;;;;0.90;0.90;;;12.40;99.90;;;;;;5050410;28;20227;-61
2023/03/09 09:57:33;;;;;;;1.10;1.00;;;12.50;99.90;;;;;;5051012;28;20243;-61
2023/03/09 10:00:06;;;;;;;0.83;0.83;;;12.60;99.90;;;;;;5050961;28;20198;-60
2023/03/09 10:02:57;;;;;;;1.30;1.20;;;12.80;99.90;;;;;;5050602;28;20208;-62
2023/03/09 10:05:30;;;;;;;1.00;1.00;;;13.00;99.90;;;;;;5050222;28;20215;-61
2023/03/09 10:08:01;;;;;;;0.60;0.60;;;13.00;99.90;;;;;;5051077;28;20218;-60
2023/03/09 10:10:32;;;;;;;1.10;0.90;;;13.20;99.90;;;;;;5050536;28;20242;-61
2023/03/09 10:13:05;;;;;;;1.00;1.00;;;13.30;99.90;;;;;;5050696;28;20212;-62
2023/03/09 10:15:36;;;;;;;0.70;0.70;;;13.30;99.90;;;;;;5049688;28;20199;-59
2023/03/09 10:18:08;;;;;;;1.00;1.00;;;13.30;99.90;;;;;;5050505;28;20234;-60
2023/03/09 10:20:38;;;;;;;0.87;0.87;;;13.20;99.90;;;;;;5051003;28;20562;-59
2023/03/09 10:23:23;;;;;;;0.77;0.77;;;13.20;99.90;;;;;;5050380;28;20632;-61
2023/03/09 10:25:55;;;;;;;0.87;0.87;;;13.20;99.90;;;;;;5050000;28;20604;-60
2023/03/09 10:28:28;;;;;;;1.13;1.02;;;13.10;99.90;;;;;;5050998;28;20339;-61
2023/03/09 10:30:59;;;;;;;0.90;0.90;;;13.20;99.90;;;;;;5051330;28;20568;-60
2023/03/09 10:33:35;;;;;;;0.90;0.90;;;13.30;99.90;;;;;;5051131;28;20242;-61
2023/03/09 10:36:07;;;;;;;0.90;0.90;;;13.30;99.90;;;;;;5052879;28;20658;-60
2023/03/09 10:38:37;;;;;;;1.50;1.20;;;13.30;99.90;;;;;;5029385;28;20311;-61
2023/03/09 10:41:15;;;;;;;1.30;1.20;;;13.30;99.90;;;;;;5052692;28;20187;-61
2023/03/09 10:43:41;;;;;;;1.20;1.10;;;13.30;99.90;;;;;;5053991;28;20288;-61
2023/03/09 10:46:14;;;;;;;1.10;1.00;;;13.30;99.90;;;;;;5054718;28;20668;-60
2023/03/09 10:48:42;;;;;;;1.00;1.00;;;13.40;99.90;;;;;;5068050;28;20180;-61
2023/03/09 10:51:24;;;;;;;0.93;0.93;;;13.30;99.90;;;;;;5073031;28;20207;-61
2023/03/09 10:53:54;;;;;;;1.00;0.93;;;13.40;99.90;;;;;;5073275;28;20223;-60
2023/03/09 10:56:24;;;;;;;1.00;1.00;;;13.40;99.90;;;;;;5073649;28;20208;-60
2023/03/09 10:59:13;;;;;;;1.00;1.00;;;13.50;99.90;;;;;;5066311;28;20256;-61
2023/03/09 11:01:42;;;;;;;1.00;1.00;;;13.50;99.90;;;;;;5053366;28;20712;-60
2023/03/09 11:04:37;;;;;;;1.10;1.00;;;13.60;99.90;;;;;;5052227;28;20228;-60
2023/03/09 11:07:06;;;;;;;1.02;1.02;;;13.60;99.90;;;;;;5053269;28;20212;-61
2023/03/09 11:09:36;;;;;;;1.33;1.23;;;13.70;99.90;;;;;;5053039;28;20643;-60
2023/03/09 11:12:22;;;;;;;1.23;1.13;;;13.80;99.90;;;;;;5052637;28;20216;-62
2023/03/09 11:14:52;;;;;;;1.20;1.10;;;13.90;99.90;;;;;;5052061;28;20234;-60
2023/03/09 11:17:29;;;;;;;1.23;1.13;;;14.00;99.90;;;;;;5054577;28;20227;-60
2023/03/09 11:20:23;;;;;;;0.90;0.90;;;14.10;99.90;;;;;;5059978;28;20284;-60
2023/03/09 11:22:55;;;;;;;1.00;1.00;;;14.10;99.90;;;;;;5057065;28;20215;-60
2023/03/09 11:25:34;;;;;;;0.90;0.90;;;14.20;99.90;;;;;;5054613;28;20194;-61
2023/03/09 11:28:10;;;;;;;1.13;0.90;;;14.50;99.90;;;;;;5051832;28;20207;-62
2023/03/09 11:30:37;;;;;;;1.27;0.93;;;14.70;99.90;;;;;;5053047;28;20196;-60
2023/03/09 11:33:10;;;;;;;0.80;0.80;;;14.90;99.90;;;;;;5052950;28;20204;-60
2023/03/09 11:35:37;;;;;;;0.80;0.80;;;14.90;99.90;;;;;;5051154;28;20349;-60
2023/03/09 11:38:11;;;;;;;0.90;0.90;;;14.90;99.90;;;;;;5051376;28;20224;-61
2023/03/09 11:40:41;;;;;;;0.90;0.90;;;14.90;99.90;;;;;;5051609;28;20275;-60
2023/03/09 11:43:18;;;;;;;1.00;1.00;;;14.90;99.90;;;;;;5052907;28;20876;-62
2023/03/09 11:45:44;;;;;;;0.90;0.90;;;14.90;99.90;;;;;;5052329;28;20220;-60
2023/03/09 11:48:22;;;;;;;1.20;1.10;;;14.90;99.90;;;;;;5052861;28;20210;-62
2023/03/09 11:50:57;;;;;;;1.23;1.13;;;14.90;99.90;;;;;;5052537;28;20693;-61
2023/03/09 11:53:27;;;;;;;1.80;1.70;;;14.90;99.90;;;;;;5052613;28;20248;-61
2023/03/09 11:55:58;;;;;;;1.03;1.03;;;15.00;99.90;;;;;;5052913;28;20561;-61
2023/03/09 11:58:31;;;;;;;1.00;1.00;;;15.00;99.90;;;;;;5053116;28;20227;-61
2023/03/09 12:01:07;;;;;;;1.20;1.10;;;15.00;99.90;;;;;;5052767;28;20203;-61
2023/03/09 12:03:40;;;;;;;0.90;0.90;;;15.10;99.90;;;;;;5052668;28;20224;-61
2023/03/09 12:06:30;;;;;;;1.10;1.10;;;15.10;99.90;;;;;;5051851;28;20196;-61
2023/03/09 12:08:59;;;;;;;0.90;0.90;;;15.20;99.90;;;;;;5052532;28;20200;-60
2023/03/09 12:11:30;;;;;;;0.90;0.90;;;15.30;99.90;;;;;;5051736;28;20218;-61
2023/03/09 12:14:04;;;;;;;1.20;1.10;;;15.50;99.90;;;;;;5049867;28;20224;-61
2023/03/09 12:16:35;;;;;;;1.63;1.30;;;15.70;99.90;;;;;;5052217;28;20207;-61
2023/03/09 12:19:04;;;;;;;1.55;1.00;;;15.80;99.90;;;;;;5051840;28;20208;-63
2023/03/09 12:21:34;;;;;;;0.80;0.80;;;16.20;99.90;;;;;;5051235;28;20265;-61
2023/03/09 12:24:18;;;;;;;1.10;1.10;;;16.30;99.90;;;;;;5050463;28;20246;-60
2023/03/09 12:26:45;;;;;;;1.17;1.08;;;16.20;99.90;;;;;;5051959;28;20203;-61
2023/03/09 12:29:23;;;;;;;0.90;0.90;;;16.20;99.90;;;;;;5051894;28;20670;-61
2023/03/09 12:32:16;;;;;;;1.00;1.00;;;16.30;99.90;;;;;;5052008;28;20203;-61
2023/03/09 12:34:44;;;;;;;1.00;0.90;;;16.20;99.90;;;;;;5051342;28;20232;-62
2023/03/09 12:37:56;;;;;;;1.03;1.00;;;16.00;99.90;;;;;;5052087;28;20210;-61
2023/03/09 12:40:35;;;;;;;1.10;1.07;;;16.00;99.90;;;;;;4990840;28;20404;-61
2023/03/09 12:43:48;;;;;;;1.17;1.07;;;15.90;99.90;;;;;;5042311;28;20203;-61
2023/03/09 12:46:51;;;;;;;0.90;0.90;;;15.90;99.90;;;;;;5051831;28;20654;-60
2023/03/09 12:49:22;;;;;;;0.90;0.90;;;16.00;99.90;;;;;;5050775;28;20214;-61
2023/03/09 12:52:13;;;;;;;1.10;1.00;;;16.20;99.90;;;;;;5050617;28;20686;-61
2023/03/09 12:54:41;;;;;;;0.90;0.90;;;16.20;99.90;;;;;;5050772;28;20291;-60
2023/03/09 12:57:20;;;;;;;0.93;0.93;;;16.40;99.90;;;;;;5051191;28;20219;-61
2023/03/09 12:59:49;;;;;;;1.00;1.00;;;16.20;99.90;;;;;;5051707;28;20215;-60
2023/03/09 13:02:29;;;;;;;1.00;1.00;;;16.20;99.90;;;;;;5051108;28;20227;-60